sensor_id;sensor_type;location;lat;lon;timestamp;P1;durP1;ratioP1;P2;durP2;ratioP2
20725;SDS011;10524;48.132;8.518;2023-10-08T00:01:29;10.57;;;6.18;;
20725;SDS011;10524;48.132;8.518;2023-10-08T00:03:58;11.32;;;5.75;;
20725;SDS011;10524;48.132;8.518;2023-10-08T00:06:25;8.55;;;5.05;;
20725;SDS011;10524;48.132;8.518;2023-10-08T00:08:53;8.45;;;5.13;;
20725;SDS011;10524;48.132;8.518;2023-10-08T00:11:25;9.93;;;5.43;;
20725;SDS011;10524;48.132;8.518;2023-10-08T00:13:54;7.93;;;4.80;;
20725;SDS011;10524;48.132;8.518;2023-10-08T00:16:21;8.43;;;4.90;;
20725;SDS011;10524;48.132;8.518;2023-10-08T00:18:47;8.32;;;4.95;;
20725;SDS011;10524;48.132;8.518;2023-10-08T00:21:17;10.77;;;5.70;;
20725;SDS011;10524;48.132;8.518;2023-10-08T00:24:02;8.88;;;4.93;;
20725;SDS011;10524;48.132;8.518;2023-10-08T00:26:32;10.45;;;5.30;;
20725;SDS011;10524;48.132;8.518;2023-10-08T00:29:04;7.80;;;5.18;;
20725;SDS011;10524;48.132;8.518;2023-10-08T00:31:46;9.00;;;5.32;;
20725;SDS011;10524;48.132;8.518;2023-10-08T00:34:15;8.80;;;4.90;;
20725;SDS011;10524;48.132;8.518;2023-10-08T00:36:46;9.88;;;5.13;;
20725;SDS011;10524;48.132;8.518;2023-10-08T00:39:13;8.13;;;4.78;;
20725;SDS011;10524;48.132;8.518;2023-10-08T00:41:43;8.90;;;5.38;;
20725;SDS011;10524;48.132;8.518;2023-10-08T00:44:10;8.98;;;5.40;;
20725;SDS011;10524;48.132;8.518;2023-10-08T00:46:40;8.32;;;4.70;;
20725;SDS011;10524;48.132;8.518;2023-10-08T00:49:16;8.98;;;5.00;;
20725;SDS011;10524;48.132;8.518;2023-10-08T00:52:04;8.38;;;4.97;;
20725;SDS011;10524;48.132;8.518;2023-10-08T00:54:33;9.80;;;5.00;;
20725;SDS011;10524;48.132;8.518;2023-10-08T00:57:24;9.10;;;4.70;;
20725;SDS011;10524;48.132;8.518;2023-10-08T00:59:51;8.90;;;5.03;;
20725;SDS011;10524;48.132;8.518;2023-10-08T01:02:24;10.95;;;6.20;;
20725;SDS011;10524;48.132;8.518;2023-10-08T01:04:56;9.13;;;5.45;;
20725;SDS011;10524;48.132;8.518;2023-10-08T01:07:22;8.73;;;4.93;;
20725;SDS011;10524;48.132;8.518;2023-10-08T01:09:50;10.13;;;5.35;;
20725;SDS011;10524;48.132;8.518;2023-10-08T01:15:01;8.52;;;5.15;;
20725;SDS011;10524;48.132;8.518;2023-10-08T01:17:50;8.68;;;4.55;;
20725;SDS011;10524;48.132;8.518;2023-10-08T01:20:23;8.00;;;4.55;;
20725;SDS011;10524;48.132;8.518;2023-10-08T01:23:09;7.75;;;4.53;;
20725;SDS011;10524;48.132;8.518;2023-10-08T01:25:39;9.73;;;5.13;;
20725;SDS011;10524;48.132;8.518;2023-10-08T01:28:06;8.98;;;4.60;;
20725;SDS011;10524;48.132;8.518;2023-10-08T01:30:45;9.32;;;5.72;;
20725;SDS011;10524;48.132;8.518;2023-10-08T01:33:12;9.93;;;4.57;;
20725;SDS011;10524;48.132;8.518;2023-10-08T01:35:40;11.20;;;5.47;;
20725;SDS011;10524;48.132;8.518;2023-10-08T01:38:06;8.10;;;4.45;;
20725;SDS011;10524;48.132;8.518;2023-10-08T01:40:34;8.80;;;5.00;;
20725;SDS011;10524;48.132;8.518;2023-10-08T01:42:59;8.82;;;5.07;;
20725;SDS011;10524;48.132;8.518;2023-10-08T01:45:26;7.28;;;4.28;;
20725;SDS011;10524;48.132;8.518;2023-10-08T01:47:52;9.55;;;4.57;;
20725;SDS011;10524;48.132;8.518;2023-10-08T01:50:20;7.20;;;4.13;;
20725;SDS011;10524;48.132;8.518;2023-10-08T01:52:49;8.20;;;4.40;;
20725;SDS011;10524;48.132;8.518;2023-10-08T01:55:18;8.07;;;4.25;;
20725;SDS011;10524;48.132;8.518;2023-10-08T01:57:45;8.40;;;4.30;;
20725;SDS011;10524;48.132;8.518;2023-10-08T02:00:12;9.13;;;3.85;;
20725;SDS011;10524;48.132;8.518;2023-10-08T02:02:49;8.68;;;3.78;;
20725;SDS011;10524;48.132;8.518;2023-10-08T02:05:16;7.50;;;4.07;;
20725;SDS011;10524;48.132;8.518;2023-10-08T02:07:47;7.53;;;3.65;;
20725;SDS011;10524;48.132;8.518;2023-10-08T02:10:13;6.93;;;3.97;;
20725;SDS011;10524;48.132;8.518;2023-10-08T02:12:40;6.90;;;4.10;;
20725;SDS011;10524;48.132;8.518;2023-10-08T02:15:07;8.30;;;4.20;;
20725;SDS011;10524;48.132;8.518;2023-10-08T02:17:34;9.80;;;4.85;;
20725;SDS011;10524;48.132;8.518;2023-10-08T02:20:00;8.95;;;4.07;;
20725;SDS011;10524;48.132;8.518;2023-10-08T02:22:30;8.23;;;4.60;;
20725;SDS011;10524;48.132;8.518;2023-10-08T02:24:56;8.57;;;4.28;;
20725;SDS011;10524;48.132;8.518;2023-10-08T02:27:27;7.43;;;4.28;;
20725;SDS011;10524;48.132;8.518;2023-10-08T02:29:53;8.32;;;4.28;;
20725;SDS011;10524;48.132;8.518;2023-10-08T02:32:21;9.43;;;4.63;;
20725;SDS011;10524;48.132;8.518;2023-10-08T02:34:49;10.25;;;4.57;;
20725;SDS011;10524;48.132;8.518;2023-10-08T02:37:18;7.95;;;4.38;;
20725;SDS011;10524;48.132;8.518;2023-10-08T02:39:44;9.70;;;4.75;;
20725;SDS011;10524;48.132;8.518;2023-10-08T02:42:10;7.78;;;4.40;;
20725;SDS011;10524;48.132;8.518;2023-10-08T02:44:36;7.43;;;4.20;;
20725;SDS011;10524;48.132;8.518;2023-10-08T02:47:10;8.27;;;4.72;;
20725;SDS011;10524;48.132;8.518;2023-10-08T02:49:45;8.52;;;4.53;;
20725;SDS011;10524;48.132;8.518;2023-10-08T02:52:13;8.90;;;4.55;;
20725;SDS011;10524;48.132;8.518;2023-10-08T02:54:41;8.27;;;4.47;;
20725;SDS011;10524;48.132;8.518;2023-10-08T02:57:06;8.25;;;4.40;;
20725;SDS011;10524;48.132;8.518;2023-10-08T03:02:11;8.13;;;3.97;;
20725;SDS011;10524;48.132;8.518;2023-10-08T03:04:44;7.80;;;4.20;;
20725;SDS011;10524;48.132;8.518;2023-10-08T03:07:11;7.72;;;3.60;;
20725;SDS011;10524;48.132;8.518;2023-10-08T03:09:47;8.73;;;3.95;;
20725;SDS011;10524;48.132;8.518;2023-10-08T03:12:16;7.68;;;3.95;;
20725;SDS011;10524;48.132;8.518;2023-10-08T03:14:43;7.20;;;3.47;;
20725;SDS011;10524;48.132;8.518;2023-10-08T03:17:27;10.50;;;3.55;;
20725;SDS011;10524;48.132;8.518;2023-10-08T03:19:54;8.95;;;3.90;;
20725;SDS011;10524;48.132;8.518;2023-10-08T03:22:43;8.60;;;4.35;;
20725;SDS011;10524;48.132;8.518;2023-10-08T03:25:11;9.88;;;4.30;;
20725;SDS011;10524;48.132;8.518;2023-10-08T03:27:42;8.02;;;4.03;;
20725;SDS011;10524;48.132;8.518;2023-10-08T03:30:08;9.27;;;4.00;;
20725;SDS011;10524;48.132;8.518;2023-10-08T03:32:40;11.35;;;4.22;;
20725;SDS011;10524;48.132;8.518;2023-10-08T03:35:08;13.32;;;4.13;;
20725;SDS011;10524;48.132;8.518;2023-10-08T03:37:38;10.32;;;4.07;;
20725;SDS011;10524;48.132;8.518;2023-10-08T03:40:11;8.05;;;4.45;;
20725;SDS011;10524;48.132;8.518;2023-10-08T03:42:51;8.50;;;4.50;;
20725;SDS011;10524;48.132;8.518;2023-10-08T03:45:21;7.32;;;4.03;;
20725;SDS011;10524;48.132;8.518;2023-10-08T03:48:05;10.50;;;4.03;;
20725;SDS011;10524;48.132;8.518;2023-10-08T03:50:33;8.63;;;3.75;;
20725;SDS011;10524;48.132;8.518;2023-10-08T03:53:06;8.77;;;4.00;;
20725;SDS011;10524;48.132;8.518;2023-10-08T03:55:39;9.40;;;4.05;;
20725;SDS011;10524;48.132;8.518;2023-10-08T03:58:10;8.43;;;3.72;;
20725;SDS011;10524;48.132;8.518;2023-10-08T04:00:44;13.02;;;4.20;;
20725;SDS011;10524;48.132;8.518;2023-10-08T04:03:11;9.05;;;4.18;;
20725;SDS011;10524;48.132;8.518;2023-10-08T04:05:37;8.55;;;3.95;;
20725;SDS011;10524;48.132;8.518;2023-10-08T04:08:35;9.48;;;4.35;;
20725;SDS011;10524;48.132;8.518;2023-10-08T04:11:08;15.10;;;4.53;;
20725;SDS011;10524;48.132;8.518;2023-10-08T04:13:47;7.88;;;3.83;;
20725;SDS011;10524;48.132;8.518;2023-10-08T04:16:13;8.82;;;4.25;;
20725;SDS011;10524;48.132;8.518;2023-10-08T04:18:44;10.25;;;4.53;;
20725;SDS011;10524;48.132;8.518;2023-10-08T04:21:11;7.55;;;3.80;;
20725;SDS011;10524;48.132;8.518;2023-10-08T04:23:39;6.63;;;4.00;;
20725;SDS011;10524;48.132;8.518;2023-10-08T04:26:05;9.52;;;4.32;;
20725;SDS011;10524;48.132;8.518;2023-10-08T04:28:31;13.40;;;4.10;;
20725;SDS011;10524;48.132;8.518;2023-10-08T04:31:00;9.60;;;4.07;;
20725;SDS011;10524;48.132;8.518;2023-10-08T04:33:39;13.32;;;4.32;;
20725;SDS011;10524;48.132;8.518;2023-10-08T04:36:09;7.15;;;3.85;;
20725;SDS011;10524;48.132;8.518;2023-10-08T04:38:43;9.82;;;4.53;;
20725;SDS011;10524;48.132;8.518;2023-10-08T04:41:11;9.80;;;4.50;;
20725;SDS011;10524;48.132;8.518;2023-10-08T04:43:37;9.55;;;4.38;;
20725;SDS011;10524;48.132;8.518;2023-10-08T04:46:08;10.45;;;4.00;;
20725;SDS011;10524;48.132;8.518;2023-10-08T04:48:50;9.77;;;3.92;;
20725;SDS011;10524;48.132;8.518;2023-10-08T04:51:16;10.15;;;4.47;;
20725;SDS011;10524;48.132;8.518;2023-10-08T04:53:43;8.15;;;3.80;;
20725;SDS011;10524;48.132;8.518;2023-10-08T04:56:12;10.32;;;4.70;;
20725;SDS011;10524;48.132;8.518;2023-10-08T04:58:45;10.38;;;4.72;;
20725;SDS011;10524;48.132;8.518;2023-10-08T05:01:15;10.60;;;4.25;;
20725;SDS011;10524;48.132;8.518;2023-10-08T05:03:47;13.80;;;4.78;;
20725;SDS011;10524;48.132;8.518;2023-10-08T05:06:27;13.57;;;3.92;;
20725;SDS011;10524;48.132;8.518;2023-10-08T05:09:21;11.45;;;4.22;;
20725;SDS011;10524;48.132;8.518;2023-10-08T05:11:50;12.18;;;4.18;;
20725;SDS011;10524;48.132;8.518;2023-10-08T05:14:18;10.07;;;4.13;;
20725;SDS011;10524;48.132;8.518;2023-10-08T05:17:01;11.05;;;4.45;;
20725;SDS011;10524;48.132;8.518;2023-10-08T05:19:32;9.32;;;4.03;;
20725;SDS011;10524;48.132;8.518;2023-10-08T05:22:09;9.60;;;4.20;;
20725;SDS011;10524;48.132;8.518;2023-10-08T05:24:55;11.25;;;4.70;;
20725;SDS011;10524;48.132;8.518;2023-10-08T05:27:41;11.65;;;4.72;;
20725;SDS011;10524;48.132;8.518;2023-10-08T05:30:18;10.38;;;4.95;;
20725;SDS011;10524;48.132;8.518;2023-10-08T05:33:07;11.35;;;4.97;;
20725;SDS011;10524;48.132;8.518;2023-10-08T05:35:50;10.82;;;4.40;;
20725;SDS011;10524;48.132;8.518;2023-10-08T05:38:27;10.48;;;4.53;;
20725;SDS011;10524;48.132;8.518;2023-10-08T05:40:59;11.38;;;3.95;;
20725;SDS011;10524;48.132;8.518;2023-10-08T05:43:29;9.93;;;4.25;;
20725;SDS011;10524;48.132;8.518;2023-10-08T05:46:10;9.43;;;4.18;;
20725;SDS011;10524;48.132;8.518;2023-10-08T05:48:48;12.70;;;5.10;;
20725;SDS011;10524;48.132;8.518;2023-10-08T05:51:36;11.23;;;5.03;;
20725;SDS011;10524;48.132;8.518;2023-10-08T05:54:32;10.73;;;4.65;;
20725;SDS011;10524;48.132;8.518;2023-10-08T05:57:05;12.98;;;5.50;;
20725;SDS011;10524;48.132;8.518;2023-10-08T06:04:53;9.38;;;5.13;;
20725;SDS011;10524;48.132;8.518;2023-10-08T06:07:47;9.80;;;4.60;;
20725;SDS011;10524;48.132;8.518;2023-10-08T06:18:29;9.38;;;3.70;;
20725;SDS011;10524;48.132;8.518;2023-10-08T06:20:59;9.82;;;4.57;;
20725;SDS011;10524;48.132;8.518;2023-10-08T06:23:40;10.25;;;4.88;;
20725;SDS011;10524;48.132;8.518;2023-10-08T06:26:07;8.23;;;4.22;;
20725;SDS011;10524;48.132;8.518;2023-10-08T06:28:37;9.68;;;4.30;;
20725;SDS011;10524;48.132;8.518;2023-10-08T06:31:04;10.10;;;4.53;;
20725;SDS011;10524;48.132;8.518;2023-10-08T06:33:33;12.10;;;5.10;;
20725;SDS011;10524;48.132;8.518;2023-10-08T06:35:59;9.90;;;4.50;;
20725;SDS011;10524;48.132;8.518;2023-10-08T06:38:39;6.25;;;3.97;;
20725;SDS011;10524;48.132;8.518;2023-10-08T06:41:06;9.23;;;4.53;;
20725;SDS011;10524;48.132;8.518;2023-10-08T06:43:40;10.30;;;5.32;;
20725;SDS011;10524;48.132;8.518;2023-10-08T06:48:38;12.13;;;4.00;;
20725;SDS011;10524;48.132;8.518;2023-10-08T06:51:08;12.93;;;4.43;;
20725;SDS011;10524;48.132;8.518;2023-10-08T06:53:46;8.57;;;3.83;;
20725;SDS011;10524;48.132;8.518;2023-10-08T06:58:42;12.82;;;4.65;;
20725;SDS011;10524;48.132;8.518;2023-10-08T07:01:18;15.30;;;4.43;;
20725;SDS011;10524;48.132;8.518;2023-10-08T07:03:47;9.60;;;4.05;;
20725;SDS011;10524;48.132;8.518;2023-10-08T07:06:20;13.32;;;4.43;;
20725;SDS011;10524;48.132;8.518;2023-10-08T07:08:51;16.55;;;4.78;;
20725;SDS011;10524;48.132;8.518;2023-10-08T07:11:21;18.25;;;7.15;;
20725;SDS011;10524;48.132;8.518;2023-10-08T07:13:48;19.90;;;8.52;;
20725;SDS011;10524;48.132;8.518;2023-10-08T07:16:13;15.90;;;7.35;;
20725;SDS011;10524;48.132;8.518;2023-10-08T07:18:43;22.17;;;9.27;;
20725;SDS011;10524;48.132;8.518;2023-10-08T07:21:17;16.80;;;8.57;;
20725;SDS011;10524;48.132;8.518;2023-10-08T07:23:49;13.37;;;5.90;;
20725;SDS011;10524;48.132;8.518;2023-10-08T07:26:29;12.25;;;5.40;;
20725;SDS011;10524;48.132;8.518;2023-10-08T07:29:02;13.07;;;5.38;;
20725;SDS011;10524;48.132;8.518;2023-10-08T07:31:33;10.77;;;4.70;;
20725;SDS011;10524;48.132;8.518;2023-10-08T07:34:02;11.43;;;5.03;;
20725;SDS011;10524;48.132;8.518;2023-10-08T07:36:54;11.00;;;4.50;;
20725;SDS011;10524;48.132;8.518;2023-10-08T07:39:21;11.45;;;4.78;;
20725;SDS011;10524;48.132;8.518;2023-10-08T07:41:59;11.77;;;5.15;;
20725;SDS011;10524;48.132;8.518;2023-10-08T07:44:27;14.30;;;5.50;;
20725;SDS011;10524;48.132;8.518;2023-10-08T07:46:53;14.88;;;5.38;;
20725;SDS011;10524;48.132;8.518;2023-10-08T07:49:20;14.00;;;5.40;;
20725;SDS011;10524;48.132;8.518;2023-10-08T07:51:48;16.52;;;5.15;;
20725;SDS011;10524;48.132;8.518;2023-10-08T07:54:18;9.88;;;4.45;;
20725;SDS011;10524;48.132;8.518;2023-10-08T07:56:47;15.18;;;5.32;;
20725;SDS011;10524;48.132;8.518;2023-10-08T07:59:13;11.13;;;4.50;;
20725;SDS011;10524;48.132;8.518;2023-10-08T08:01:41;10.73;;;4.80;;
20725;SDS011;10524;48.132;8.518;2023-10-08T08:04:11;12.93;;;5.75;;
20725;SDS011;10524;48.132;8.518;2023-10-08T08:06:47;11.57;;;5.15;;
20725;SDS011;10524;48.132;8.518;2023-10-08T08:09:15;11.32;;;5.28;;
20725;SDS011;10524;48.132;8.518;2023-10-08T08:11:45;12.98;;;5.32;;
20725;SDS011;10524;48.132;8.518;2023-10-08T08:14:12;13.75;;;4.63;;
20725;SDS011;10524;48.132;8.518;2023-10-08T08:16:44;10.68;;;4.30;;
20725;SDS011;10524;48.132;8.518;2023-10-08T08:19:14;11.77;;;4.30;;
20725;SDS011;10524;48.132;8.518;2023-10-08T08:21:49;9.85;;;3.70;;
20725;SDS011;10524;48.132;8.518;2023-10-08T08:24:17;10.98;;;3.78;;
20725;SDS011;10524;48.132;8.518;2023-10-08T08:26:56;13.23;;;4.70;;
20725;SDS011;10524;48.132;8.518;2023-10-08T08:29:37;10.82;;;4.35;;
20725;SDS011;10524;48.132;8.518;2023-10-08T08:32:13;15.25;;;4.65;;
20725;SDS011;10524;48.132;8.518;2023-10-08T08:34:43;8.38;;;4.28;;
20725;SDS011;10524;48.132;8.518;2023-10-08T08:37:10;11.52;;;4.53;;
20725;SDS011;10524;48.132;8.518;2023-10-08T08:39:37;12.52;;;4.20;;
20725;SDS011;10524;48.132;8.518;2023-10-08T08:42:04;10.73;;;4.20;;
20725;SDS011;10524;48.132;8.518;2023-10-08T08:44:30;16.52;;;4.55;;
20725;SDS011;10524;48.132;8.518;2023-10-08T08:46:58;15.30;;;4.43;;
20725;SDS011;10524;48.132;8.518;2023-10-08T08:49:33;11.20;;;4.22;;
20725;SDS011;10524;48.132;8.518;2023-10-08T08:52:00;13.75;;;4.72;;
20725;SDS011;10524;48.132;8.518;2023-10-08T08:54:29;12.75;;;4.00;;
20725;SDS011;10524;48.132;8.518;2023-10-08T08:56:59;12.05;;;4.18;;
20725;SDS011;10524;48.132;8.518;2023-10-08T08:59:29;12.82;;;4.18;;
20725;SDS011;10524;48.132;8.518;2023-10-08T09:01:59;13.95;;;4.18;;
20725;SDS011;10524;48.132;8.518;2023-10-08T09:04:31;15.07;;;4.55;;
20725;SDS011;10524;48.132;8.518;2023-10-08T09:07:00;10.38;;;3.92;;
20725;SDS011;10524;48.132;8.518;2023-10-08T09:09:33;11.38;;;4.15;;
20725;SDS011;10524;48.132;8.518;2023-10-08T09:12:06;14.10;;;4.38;;
20725;SDS011;10524;48.132;8.518;2023-10-08T09:14:36;12.23;;;3.60;;
20725;SDS011;10524;48.132;8.518;2023-10-08T09:17:03;15.60;;;4.82;;
20725;SDS011;10524;48.132;8.518;2023-10-08T09:19:35;14.43;;;4.05;;
20725;SDS011;10524;48.132;8.518;2023-10-08T09:22:11;15.52;;;4.32;;
20725;SDS011;10524;48.132;8.518;2023-10-08T09:24:38;12.52;;;4.13;;
20725;SDS011;10524;48.132;8.518;2023-10-08T09:29:31;17.92;;;4.13;;
20725;SDS011;10524;48.132;8.518;2023-10-08T09:32:03;16.52;;;4.28;;
20725;SDS011;10524;48.132;8.518;2023-10-08T09:34:32;20.08;;;4.28;;
20725;SDS011;10524;48.132;8.518;2023-10-08T09:36:58;12.02;;;3.95;;
20725;SDS011;10524;48.132;8.518;2023-10-08T09:39:26;9.85;;;4.18;;
20725;SDS011;10524;48.132;8.518;2023-10-08T09:41:54;18.65;;;3.78;;
20725;SDS011;10524;48.132;8.518;2023-10-08T09:44:22;14.82;;;4.22;;
20725;SDS011;10524;48.132;8.518;2023-10-08T09:46:52;17.05;;;3.75;;
20725;SDS011;10524;48.132;8.518;2023-10-08T09:49:29;11.43;;;4.00;;
20725;SDS011;10524;48.132;8.518;2023-10-08T09:52:04;12.02;;;3.95;;
20725;SDS011;10524;48.132;8.518;2023-10-08T09:54:42;16.00;;;4.05;;
20725;SDS011;10524;48.132;8.518;2023-10-08T09:57:12;15.38;;;4.25;;
20725;SDS011;10524;48.132;8.518;2023-10-08T09:59:39;19.08;;;4.32;;
20725;SDS011;10524;48.132;8.518;2023-10-08T10:02:06;10.90;;;3.70;;
20725;SDS011;10524;48.132;8.518;2023-10-08T10:04:35;18.75;;;4.47;;
20725;SDS011;10524;48.132;8.518;2023-10-08T10:07:11;13.88;;;3.90;;
20725;SDS011;10524;48.132;8.518;2023-10-08T10:09:38;14.93;;;4.55;;
20725;SDS011;10524;48.132;8.518;2023-10-08T10:12:08;12.65;;;3.95;;
20725;SDS011;10524;48.132;8.518;2023-10-08T10:14:46;10.95;;;3.90;;
20725;SDS011;10524;48.132;8.518;2023-10-08T10:17:19;11.25;;;3.88;;
20725;SDS011;10524;48.132;8.518;2023-10-08T10:20:05;13.60;;;4.28;;
20725;SDS011;10524;48.132;8.518;2023-10-08T10:22:36;12.32;;;3.70;;
20725;SDS011;10524;48.132;8.518;2023-10-08T10:25:02;9.60;;;3.60;;
20725;SDS011;10524;48.132;8.518;2023-10-08T10:27:42;12.50;;;3.80;;
20725;SDS011;10524;48.132;8.518;2023-10-08T10:30:32;13.65;;;3.80;;
20725;SDS011;10524;48.132;8.518;2023-10-08T10:33:02;13.82;;;3.80;;
20725;SDS011;10524;48.132;8.518;2023-10-08T10:35:31;13.60;;;4.65;;
20725;SDS011;10524;48.132;8.518;2023-10-08T10:37:58;10.50;;;3.35;;
20725;SDS011;10524;48.132;8.518;2023-10-08T10:40:28;9.98;;;3.92;;
20725;SDS011;10524;48.132;8.518;2023-10-08T10:43:04;9.02;;;3.88;;
20725;SDS011;10524;48.132;8.518;2023-10-08T10:45:32;10.65;;;3.85;;
20725;SDS011;10524;48.132;8.518;2023-10-08T10:48:16;13.73;;;3.75;;
20725;SDS011;10524;48.132;8.518;2023-10-08T10:50:41;16.90;;;4.05;;
20725;SDS011;10524;48.132;8.518;2023-10-08T10:53:17;10.52;;;3.55;;
20725;SDS011;10524;48.132;8.518;2023-10-08T10:55:43;9.13;;;3.25;;
20725;SDS011;10524;48.132;8.518;2023-10-08T10:58:24;14.65;;;4.10;;
20725;SDS011;10524;48.132;8.518;2023-10-08T11:00:50;10.98;;;3.90;;
20725;SDS011;10524;48.132;8.518;2023-10-08T11:03:23;10.02;;;3.35;;
20725;SDS011;10524;48.132;8.518;2023-10-08T11:05:50;9.75;;;3.35;;
20725;SDS011;10524;48.132;8.518;2023-10-08T11:08:20;11.38;;;3.97;;
20725;SDS011;10524;48.132;8.518;2023-10-08T11:10:48;15.13;;;4.25;;
20725;SDS011;10524;48.132;8.518;2023-10-08T11:13:19;9.88;;;3.88;;
20725;SDS011;10524;48.132;8.518;2023-10-08T11:15:47;13.18;;;3.72;;
20725;SDS011;10524;48.132;8.518;2023-10-08T11:18:17;12.88;;;3.63;;
20725;SDS011;10524;48.132;8.518;2023-10-08T11:20:45;11.85;;;3.50;;
20725;SDS011;10524;48.132;8.518;2023-10-08T11:26:01;16.48;;;3.72;;
20725;SDS011;10524;48.132;8.518;2023-10-08T11:28:37;12.25;;;4.25;;
20725;SDS011;10524;48.132;8.518;2023-10-08T11:31:15;15.95;;;3.70;;
20725;SDS011;10524;48.132;8.518;2023-10-08T11:33:46;16.20;;;3.80;;
20725;SDS011;10524;48.132;8.518;2023-10-08T11:36:20;21.75;;;3.97;;
20725;SDS011;10524;48.132;8.518;2023-10-08T11:38:53;15.05;;;3.90;;
20725;SDS011;10524;48.132;8.518;2023-10-08T11:41:26;11.60;;;3.67;;
20725;SDS011;10524;48.132;8.518;2023-10-08T11:43:54;21.55;;;4.00;;
20725;SDS011;10524;48.132;8.518;2023-10-08T11:46:27;16.52;;;3.45;;
20725;SDS011;10524;48.132;8.518;2023-10-08T11:49:04;17.85;;;4.28;;
20725;SDS011;10524;48.132;8.518;2023-10-08T11:51:33;14.25;;;3.85;;
20725;SDS011;10524;48.132;8.518;2023-10-08T11:54:00;14.88;;;4.00;;
20725;SDS011;10524;48.132;8.518;2023-10-08T11:56:29;16.10;;;4.13;;
20725;SDS011;10524;48.132;8.518;2023-10-08T11:58:57;13.55;;;4.20;;
20725;SDS011;10524;48.132;8.518;2023-10-08T12:01:23;15.23;;;3.90;;
20725;SDS011;10524;48.132;8.518;2023-10-08T12:03:50;13.60;;;3.88;;
20725;SDS011;10524;48.132;8.518;2023-10-08T12:06:16;14.95;;;3.80;;
20725;SDS011;10524;48.132;8.518;2023-10-08T12:08:46;20.17;;;4.10;;
20725;SDS011;10524;48.132;8.518;2023-10-08T12:11:18;17.90;;;3.85;;
20725;SDS011;10524;48.132;8.518;2023-10-08T12:13:46;16.17;;;3.95;;
20725;SDS011;10524;48.132;8.518;2023-10-08T12:16:13;22.88;;;4.40;;
20725;SDS011;10524;48.132;8.518;2023-10-08T12:18:46;15.43;;;4.05;;
20725;SDS011;10524;48.132;8.518;2023-10-08T12:21:24;17.60;;;4.50;;
20725;SDS011;10524;48.132;8.518;2023-10-08T12:23:50;19.23;;;4.40;;
20725;SDS011;10524;48.132;8.518;2023-10-08T12:26:16;14.48;;;4.15;;
20725;SDS011;10524;48.132;8.518;2023-10-08T12:28:47;17.77;;;4.57;;
20725;SDS011;10524;48.132;8.518;2023-10-08T12:31:16;24.40;;;4.68;;
20725;SDS011;10524;48.132;8.518;2023-10-08T12:33:47;17.23;;;4.38;;
20725;SDS011;10524;48.132;8.518;2023-10-08T12:36:22;21.58;;;4.57;;
20725;SDS011;10524;48.132;8.518;2023-10-08T12:38:49;14.73;;;4.10;;
20725;SDS011;10524;48.132;8.518;2023-10-08T12:41:22;18.70;;;4.28;;
20725;SDS011;10524;48.132;8.518;2023-10-08T12:43:52;20.40;;;3.90;;
20725;SDS011;10524;48.132;8.518;2023-10-08T12:46:19;13.00;;;4.03;;
20725;SDS011;10524;48.132;8.518;2023-10-08T12:48:52;15.05;;;3.67;;
20725;SDS011;10524;48.132;8.518;2023-10-08T12:51:25;18.63;;;4.88;;
20725;SDS011;10524;48.132;8.518;2023-10-08T12:53:51;16.98;;;4.15;;
20725;SDS011;10524;48.132;8.518;2023-10-08T12:56:31;14.75;;;3.75;;
20725;SDS011;10524;48.132;8.518;2023-10-08T12:59:01;17.25;;;3.95;;
20725;SDS011;10524;48.132;8.518;2023-10-08T13:01:36;23.00;;;4.88;;
20725;SDS011;10524;48.132;8.518;2023-10-08T13:04:06;25.40;;;5.47;;
20725;SDS011;10524;48.132;8.518;2023-10-08T13:06:41;17.83;;;4.07;;
20725;SDS011;10524;48.132;8.518;2023-10-08T13:09:10;14.18;;;3.38;;
20725;SDS011;10524;48.132;8.518;2023-10-08T13:11:38;19.13;;;4.07;;
20725;SDS011;10524;48.132;8.518;2023-10-08T13:14:04;19.38;;;4.28;;
20725;SDS011;10524;48.132;8.518;2023-10-08T13:16:30;20.85;;;4.03;;
20725;SDS011;10524;48.132;8.518;2023-10-08T13:18:57;17.65;;;4.30;;
20725;SDS011;10524;48.132;8.518;2023-10-08T13:21:24;18.42;;;4.25;;
20725;SDS011;10524;48.132;8.518;2023-10-08T13:23:51;19.20;;;3.85;;
20725;SDS011;10524;48.132;8.518;2023-10-08T13:26:17;15.65;;;3.72;;
20725;SDS011;10524;48.132;8.518;2023-10-08T13:28:43;22.10;;;5.10;;
20725;SDS011;10524;48.132;8.518;2023-10-08T13:31:12;15.30;;;3.92;;
20725;SDS011;10524;48.132;8.518;2023-10-08T13:33:38;13.32;;;3.75;;
20725;SDS011;10524;48.132;8.518;2023-10-08T13:36:08;14.95;;;4.38;;
20725;SDS011;10524;48.132;8.518;2023-10-08T13:38:35;18.08;;;4.07;;
20725;SDS011;10524;48.132;8.518;2023-10-08T13:41:02;12.63;;;3.67;;
20725;SDS011;10524;48.132;8.518;2023-10-08T13:43:32;18.30;;;4.28;;
20725;SDS011;10524;48.132;8.518;2023-10-08T13:46:00;21.25;;;3.83;;
20725;SDS011;10524;48.132;8.518;2023-10-08T13:48:33;17.25;;;3.78;;
20725;SDS011;10524;48.132;8.518;2023-10-08T13:51:03;14.77;;;4.28;;
20725;SDS011;10524;48.132;8.518;2023-10-08T13:53:31;16.27;;;4.68;;
20725;SDS011;10524;48.132;8.518;2023-10-08T13:55:58;19.08;;;4.30;;
20725;SDS011;10524;48.132;8.518;2023-10-08T13:58:26;14.75;;;3.30;;
20725;SDS011;10524;48.132;8.518;2023-10-08T14:00:55;13.43;;;4.30;;
20725;SDS011;10524;48.132;8.518;2023-10-08T14:03:26;16.45;;;3.90;;
20725;SDS011;10524;48.132;8.518;2023-10-08T14:05:56;18.60;;;4.57;;
20725;SDS011;10524;48.132;8.518;2023-10-08T14:08:27;14.85;;;3.53;;
20725;SDS011;10524;48.132;8.518;2023-10-08T14:10:54;16.23;;;3.50;;
20725;SDS011;10524;48.132;8.518;2023-10-08T14:13:28;14.70;;;4.18;;
20725;SDS011;10524;48.132;8.518;2023-10-08T14:15:56;18.10;;;4.00;;
20725;SDS011;10524;48.132;8.518;2023-10-08T14:18:23;16.33;;;4.28;;
20725;SDS011;10524;48.132;8.518;2023-10-08T14:20:57;14.45;;;4.18;;
20725;SDS011;10524;48.132;8.518;2023-10-08T14:23:23;20.23;;;4.57;;
20725;SDS011;10524;48.132;8.518;2023-10-08T14:25:53;16.65;;;3.60;;
20725;SDS011;10524;48.132;8.518;2023-10-08T14:28:28;16.65;;;3.65;;
20725;SDS011;10524;48.132;8.518;2023-10-08T14:31:08;18.63;;;4.55;;
20725;SDS011;10524;48.132;8.518;2023-10-08T14:33:34;18.85;;;4.07;;
20725;SDS011;10524;48.132;8.518;2023-10-08T14:36:23;22.63;;;4.47;;
20725;SDS011;10524;48.132;8.518;2023-10-08T14:39:09;18.42;;;4.60;;
20725;SDS011;10524;48.132;8.518;2023-10-08T14:41:54;17.48;;;3.92;;
20725;SDS011;10524;48.132;8.518;2023-10-08T14:44:38;17.23;;;3.92;;
20725;SDS011;10524;48.132;8.518;2023-10-08T14:47:04;13.80;;;3.75;;
20725;SDS011;10524;48.132;8.518;2023-10-08T14:49:31;16.48;;;4.05;;
20725;SDS011;10524;48.132;8.518;2023-10-08T14:51:57;22.23;;;4.20;;
20725;SDS011;10524;48.132;8.518;2023-10-08T14:54:24;18.30;;;3.80;;
20725;SDS011;10524;48.132;8.518;2023-10-08T14:56:50;16.88;;;3.92;;
20725;SDS011;10524;48.132;8.518;2023-10-08T14:59:16;20.50;;;3.95;;
20725;SDS011;10524;48.132;8.518;2023-10-08T15:01:43;20.27;;;4.32;;
20725;SDS011;10524;48.132;8.518;2023-10-08T15:04:12;21.45;;;4.47;;
20725;SDS011;10524;48.132;8.518;2023-10-08T15:06:38;19.73;;;5.00;;
20725;SDS011;10524;48.132;8.518;2023-10-08T15:09:07;18.17;;;4.05;;
20725;SDS011;10524;48.132;8.518;2023-10-08T15:11:34;20.27;;;4.53;;
20725;SDS011;10524;48.132;8.518;2023-10-08T15:14:04;21.45;;;4.10;;
20725;SDS011;10524;48.132;8.518;2023-10-08T15:16:37;16.95;;;4.00;;
20725;SDS011;10524;48.132;8.518;2023-10-08T15:19:04;21.92;;;5.22;;
20725;SDS011;10524;48.132;8.518;2023-10-08T15:21:30;22.63;;;5.07;;
20725;SDS011;10524;48.132;8.518;2023-10-08T15:24:00;18.58;;;4.60;;
20725;SDS011;10524;48.132;8.518;2023-10-08T15:26:36;19.98;;;3.90;;
20725;SDS011;10524;48.132;8.518;2023-10-08T15:29:02;19.23;;;4.47;;
20725;SDS011;10524;48.132;8.518;2023-10-08T15:31:28;21.98;;;4.63;;